TimeEDT,TemperatureF,Dew PointF,Humidity,Sea Level PressureIn,VisibilityMPH,Wind Direction,Wind SpeedMPH,Gust SpeedMPH,PrecipitationIn,Events,Conditions,WindDirDegrees,DateUTC
12:54 AM,48.0,46.0,93,30.17,10.0,Calm,Calm,-,N/A,,Clear,0,2012-10-23 04:54:00
1:54 AM,48.0,46.0,93,30.16,10.0,Calm,Calm,-,N/A,,Clear,0,2012-10-23 05:54:00
2:54 AM,46.0,46.0,100,30.16,10.0,Calm,Calm,-,N/A,,Clear,0,2012-10-23 06:54:00
3:54 AM,48.0,46.0,93,30.15,10.0,Calm,Calm,-,N/A,,Clear,0,2012-10-23 07:54:00
4:54 AM,46.9,45.0,93,30.15,10.0,Calm,Calm,-,N/A,,Clear,0,2012-10-23 08:54:00
5:54 AM,45.0,44.1,97,30.15,10.0,Calm,Calm,-,N/A,,Clear,0,2012-10-23 09:54:00
6:54 AM,44.1,43.0,96,30.17,10.0,Calm,Calm,-,N/A,,Clear,0,2012-10-23 10:54:00
7:54 AM,44.1,43.0,96,30.17,5.0,Calm,Calm,-,N/A,,Clear,0,2012-10-23 11:54:00
8:54 AM,50.0,48.9,96,30.18,10.0,South,3.5,-,N/A,,Clear,170,2012-10-23 12:54:00
9:54 AM,59.0,51.1,75,30.17,10.0,South,3.5,-,N/A,,Clear,180,2012-10-23 13:54:00
10:54 AM,66.9,52.0,59,30.17,10.0,South,3.5,-,N/A,,Clear,180,2012-10-23 14:54:00
11:54 AM,73.0,51.1,46,30.15,10.0,SSW,5.8,-,N/A,,Clear,200,2012-10-23 15:54:00
12:54 PM,79.0,51.1,38,30.12,10.0,SSW,9.2,-,N/A,,Clear,200,2012-10-23 16:54:00
1:54 PM,80.1,48.0,32,30.10,10.0,SSW,9.2,-,N/A,,Clear,210,2012-10-23 17:54:00
2:54 PM,80.1,48.9,34,30.09,10.0,SSW,8.1,-,N/A,,Clear,210,2012-10-23 18:54:00
3:54 PM,81.0,50.0,34,30.07,10.0,Variable,5.8,-,N/A,,Clear,0,2012-10-23 19:54:00
4:54 PM,79.0,50.0,36,30.07,10.0,SSW,5.8,-,N/A,,Clear,200,2012-10-23 20:54:00
5:54 PM,75.0,51.1,43,30.08,10.0,South,9.2,-,N/A,,Clear,190,2012-10-23 21:54:00
6:54 PM,68.0,52.0,56,30.09,10.0,South,4.6,-,N/A,,Clear,180,2012-10-23 22:54:00
7:54 PM,64.0,51.1,63,30.11,10.0,SSW,4.6,-,N/A,,Clear,210,2012-10-23 23:54:00
8:54 PM,64.0,50.0,60,30.11,10.0,Calm,Calm,-,N/A,,Clear,0,2012-10-24 00:54:00
9:54 PM,59.0,50.0,72,30.12,10.0,Calm,Calm,-,N/A,,Clear,0,2012-10-24 01:54:00
10:54 PM,57.0,50.0,77,30.12,10.0,Calm,Calm,-,N/A,,Clear,0,2012-10-24 02:54:00
11:54 PM,59.0,48.9,69,30.12,10.0,SW,3.5,-,N/A,,Clear,220,2012-10-24 03:54:00